Saturday, December 20, 2014
15:04 UTC
  |  Log In   |  Register Free
Airport Search:

Dawson Municipal Airport
(16J)

Dawson Municipal Airport Diagram
No Airport Diagram Available

FAA data valid effective November 13, 2014 - January 08, 2015 (unless otherwise noted).

 
 
 
 
 
 
 
 
 
 
 
 
 
 

Current Aviation Weather for Dawson Municipal Airport (16J)

METAR data is unavailable for 16J. The nearest METAR location is at KABY (17 nm SE from 16J).

The most recent METAR observation for KABY was updated at: 2111
METAR Summary (Translated METAR)
KABY
182053Z 27003KT 10SM CLR 19/M01 A3012 RMK AO2 SLP198 T01891011 56015
(17 nm SE from 16J)
KACJ
182055Z AUTO 28003KT 10SM SCT110 18/M06 A3010 RMK AO2
(25 nm NE from 16J)
TAF Summary (Translated TAF)
KABY
201132Z 2012/2112 05005KT 6SM -RA OVC025 FM201700 04003KT P6SM BKN040 FM210100 05005KT P6SM OVC020 FM210800 05007KT P6SM OVC008
  Airport Weather Conditions for 16J

Current weather conditions are
not available for 16J


The nearest NOAA weather station
is at ABY, (17 nm SE from 16J)
  
 Current Weather at ABY
49° F
Overcast
North winds at 4.6 mph
ABY NOAA Radar

Pressure: 30.19 in
Humidity: 93%
Wind: North at 4.6 MPH (4 KT)
Dew Point: 46.9°F
Visibility: 7.00 mi


Airport Weather Forecast for 16J

Translated METAR and TAF for KABY
Translated METAR for KABY (1505 UTC 20 December 2014)
found at http://aviationweather.gov/adds/metars/
 
METAR text: KABY 201500Z 07007KT 5SM BR BKN045 OVC055 09/09 A3021 RMK AO2
Conditions at: KABY (ALBANY , GA, US) observed 1500 UTC 20 December 2014
Temperature: 9.0°C (48°F)
Dewpoint: 9.0°C (48°F) [RH = 100%]
Pressure (altimeter): 30.21 inches Hg (1023.1 mb)
Winds: from the ENE (70 degrees) at 8 MPH (7 knots; 3.6 m/s)
Visibility: 5 miles (8 km)
Ceiling: 4500 feet AGL
Clouds: broken clouds at 4500 feet AGL
overcast cloud deck at 5500 feet AGL
Weather: BR  (mist)
Translated TAF for KABY
Forecast for: KABY (ALBANY , GA, US)
TAF Text: KABY 201132Z 2012/2112 05005KT 6SM -RA OVC025
Forecast period: 1200 to 1700 UTC 20 December 2014
Forecast type: FROM: standard forecast or significant change
Winds: from the NE (50 degrees) at 6 MPH (5 knots; 2.6 m/s)
Visibility: 6 miles (10 km)
Ceiling: 2500 feet AGL
Clouds: overcast cloud deck at 2500 feet AGL
Weather: -RA  (light rain)
TAF Text: FM201700 04003KT P6SM BKN040
Forecast period: 1700 UTC 20 December 2014 to 0100 UTC 21 December 2014
Forecast type: FROM: standard forecast or significant change
Winds: from the NE (40 degrees) at 3 MPH (3 knots; 1.6 m/s)
Visibility: 6 or more miles (10+ km)
Ceiling: 4000 feet AGL
Clouds: broken clouds at 4000 feet AGL
Weather: no significant weather forecast for this period
TAF Text: FM210100 05005KT P6SM OVC020
Forecast period: 0100 to 0800 UTC 21 December 2014
Forecast type: FROM: standard forecast or significant change
Winds: from the NE (50 degrees) at 6 MPH (5 knots; 2.6 m/s)
Visibility: 6 or more miles (10+ km)
Ceiling: 2000 feet AGL
Clouds: overcast cloud deck at 2000 feet AGL
Weather: no significant weather forecast for this period
TAF Text: FM210800 05007KT P6SM OVC008
Forecast period: 0800 to 1200 UTC 21 December 2014
Forecast type: FROM: standard forecast or significant change
Winds: from the NE (50 degrees) at 8 MPH (7 knots; 3.6 m/s)
Visibility: 6 or more miles (10+ km)
Ceiling: 800 feet AGL
Clouds: overcast cloud deck at 800 feet AGL
Weather: no significant weather forecast for this period

Find All Airport Services Find A Hotel Find A Rental Car Find A Golf Course Find A Restaurant $100 Hamburger



FBO's on the Field
FBO Company Facility Photos Services Transportation Aviation Fuel Prices: Prices include tax
Catering Weather Repair Courtesy Rental Type 100LL JetA JetA+ MOGAS 8087
 
Dawson/Terrell Co. Airport

This FBO has not yet been rated
FS:Independent
Last Updated: Nov-19
Login to update fuel prices
SS:
Contact Dawson/Terrell Co. AirportMore FBO Information
 
Add another FBO Facility Photos Catering Weather Repair Courtesy Rental Type 100LL JetA JetA+ MOGAS 8087
Services Transportation Aviation Fuel Prices: Prices include tax


model-print
model-print
model-print
model-print